Time;durP1;ratioP1;P1;durP2;ratioP2;P2;SDS_P1;SDS_P2;PMS_P1;PMS_P2;Temp;Humidity;BMP_temperature;BMP_pressure;BME280_temperature;BME280_humidity;BME280_pressure;Samples;Min_cycle;Max_cycle;Signal;HPM_P1;HPM_P2
2021/01/03 00:02:03;;;;;;;3.30;3.00;;;;;;;2.88;73.72;98852.50;5106163;28;20649;-65
2021/01/03 00:04:30;;;;;;;4.57;2.30;;;;;;;2.91;73.52;98855.88;5106906;28;20187;-65
2021/01/03 00:06:57;;;;;;;5.30;3.40;;;;;;;2.99;72.86;98850.28;5105483;28;20195;-65
2021/01/03 00:09:24;;;;;;;4.55;2.75;;;;;;;2.82;73.26;98848.28;5106226;28;20625;-64
2021/01/03 00:11:52;;;;;;;3.97;2.53;;;;;;;2.80;73.28;98854.56;5106111;28;20218;-65
2021/01/03 00:14:19;;;;;;;4.97;3.17;;;;;;;2.80;73.48;98844.81;5106453;28;20184;-64
2021/01/03 00:16:47;;;;;;;4.40;2.60;;;;;;;2.90;73.12;98848.84;5106766;28;20192;-64
2021/01/03 00:19:13;;;;;;;2.42;1.88;;;;;;;2.97;73.21;98845.97;5105647;28;20314;-66
2021/01/03 00:21:40;;;;;;;3.38;2.33;;;;;;;2.88;72.96;98841.88;5105890;28;20187;-65
2021/01/03 00:24:07;;;;;;;3.40;3.00;;;;;;;2.86;73.04;98838.41;5107495;28;20195;-64
2021/01/03 00:26:33;;;;;;;3.78;2.85;;;;;;;2.77;73.88;98841.41;5105938;28;20206;-64
2021/01/03 00:29:01;;;;;;;4.50;2.63;;;;;;;2.84;73.77;98838.44;5106516;28;20660;-65
2021/01/03 00:31:27;;;;;;;2.85;2.65;;;;;;;2.93;73.47;98831.91;5106454;28;20628;-65
2021/01/03 00:33:53;;;;;;;4.00;3.20;;;;;;;3.00;72.96;98838.72;5105998;28;20197;-64
2021/01/03 00:36:20;;;;;;;4.43;2.80;;;;;;;2.90;73.06;98848.84;5106681;28;20225;-64
2021/01/03 00:38:46;;;;;;;4.80;3.05;;;;;;;2.99;72.38;98844.13;5107007;28;20191;-65
2021/01/03 00:41:13;;;;;;;3.13;2.80;;;;;;;2.95;71.55;98840.69;5105723;28;20310;-65
2021/01/03 00:43:39;;;;;;;3.03;2.80;;;;;;;2.96;72.31;98837.09;5104833;28;20187;-65
2021/01/03 00:46:06;;;;;;;2.70;2.25;;;;;;;3.04;72.30;98832.34;5105764;28;20181;-66
2021/01/03 00:48:32;;;;;;;3.83;2.60;;;;;;;3.04;71.93;98828.84;5105830;28;20238;-65
2021/01/03 00:50:59;;;;;;;2.80;2.33;;;;;;;2.95;72.13;98835.38;5106525;28;20286;-66
2021/01/03 00:53:25;;;;;;;4.32;2.58;;;;;;;2.81;73.08;98827.94;5104997;28;20661;-64
2021/01/03 00:55:52;;;;;;;3.05;1.95;;;;;;;2.68;73.31;98832.84;5105605;28;20199;-64
2021/01/03 00:58:18;;;;;;;4.10;2.65;;;;;;;2.77;73.61;98839.63;5106867;28;20240;-65
2021/01/03 01:00:45;;;;;;;3.20;2.70;;;;;;;2.77;73.55;98828.13;5105348;28;20576;-65
2021/01/03 01:03:12;;;;;;;5.40;3.15;;;;;;;2.77;73.27;98830.78;5105248;28;20199;-64
2021/01/03 01:05:38;;;;;;;6.28;3.22;;;;;;;2.64;73.48;98825.91;5105705;28;20187;-64
2021/01/03 01:08:05;;;;;;;4.25;3.40;;;;;;;2.61;74.42;98834.03;5106262;28;20202;-65
2021/01/03 01:10:31;;;;;;;5.15;3.10;;;;;;;2.70;74.05;98831.00;5106406;28;20222;-65
2021/01/03 01:13:00;;;;;;;7.05;4.18;;;;;;;2.70;73.97;98830.16;5104459;28;20195;-66
2021/01/03 01:15:29;;;;;;;4.80;3.08;;;;;;;2.74;74.22;98825.56;5106195;28;20187;-65
2021/01/03 01:17:57;;;;;;;6.40;4.28;;;;;;;2.86;74.31;98825.09;5107308;28;20601;-65
2021/01/03 01:20:26;;;;;;;3.45;3.05;;;;;;;2.91;72.94;98833.75;5105261;28;20485;-65
2021/01/03 01:22:53;;;;;;;4.00;3.10;;;;;;;2.78;73.37;98824.53;5105323;28;20195;-65
2021/01/03 01:25:22;;;;;;;5.28;2.67;;;;;;;2.72;73.98;98829.16;5105520;28;20206;-65
2021/01/03 01:27:48;;;;;;;3.05;2.75;;;;;;;2.79;74.50;98828.94;5104498;28;20207;-65
2021/01/03 01:30:16;;;;;;;5.35;3.47;;;;;;;2.75;74.10;98832.63;5105520;28;20278;-65
2021/01/03 01:32:42;;;;;;;3.67;2.20;;;;;;;2.83;73.23;98838.53;5108415;28;20282;-66
2021/01/03 01:35:12;;;;;;;2.15;1.95;;;;;;;2.90;73.21;98832.91;5108785;28;20196;-64
2021/01/03 01:37:39;;;;;;;5.50;3.60;;;;;;;2.74;73.59;98833.53;5109863;28;20240;-65
2021/01/03 01:40:08;;;;;;;3.55;2.60;;;;;;;2.80;73.13;98833.31;5110502;28;20294;-65
2021/01/03 01:42:34;;;;;;;5.60;2.90;;;;;;;2.78;73.72;98843.13;5109488;28;20696;-63
2021/01/03 01:45:01;;;;;;;4.65;2.65;;;;;;;2.78;73.84;98828.06;5110511;28;20928;-64
2021/01/03 01:47:30;;;;;;;4.47;2.35;;;;;;;2.84;74.04;98832.28;5109518;28;21025;-64
2021/01/03 01:50:01;;;;;;;5.28;3.38;;;;;;;2.94;73.67;98844.28;5108743;28;20184;-65
2021/01/03 01:52:32;;;;;;;5.78;3.17;;;;;;;2.91;72.97;98837.28;5109051;28;20297;-64
2021/01/03 01:55:02;;;;;;;6.38;4.07;;;;;;;2.82;73.72;98834.13;5109822;28;20214;-65
2021/01/03 01:57:33;;;;;;;3.55;2.42;;;;;;;2.78;74.22;98843.13;5108387;28;20196;-65
2021/01/03 02:00:04;;;;;;;7.78;3.47;;;;;;;2.75;74.29;98838.81;5109163;28;20302;-65
2021/01/03 02:02:36;;;;;;;5.57;2.65;;;;;;;2.91;73.75;98839.06;5109719;28;20194;-65
2021/01/03 02:05:10;;;;;;;4.25;2.65;;;;;;;2.91;73.89;98839.94;5108035;28;20271;-65
2021/01/03 02:07:46;;;;;;;3.55;3.13;;;;;;;3.01;73.17;98834.25;5108595;28;20217;-65
2021/01/03 02:10:21;;;;;;;3.38;2.72;;;;;;;2.99;73.36;98834.34;5108585;28;20187;-64
2021/01/03 02:12:51;;;;;;;5.82;3.28;;;;;;;2.92;73.67;98836.38;5108545;28;20204;-65
2021/01/03 02:15:22;;;;;;;3.05;2.50;;;;;;;2.85;73.92;98834.00;5107817;28;20184;-66
2021/01/03 02:17:48;;;;;;;4.35;3.00;;;;;;;2.89;74.10;98832.94;5108439;28;20179;-65
2021/01/03 02:20:16;;;;;;;5.93;3.35;;;;;;;2.86;73.87;98836.59;5109591;28;20255;-65
2021/01/03 02:22:48;;;;;;;5.63;3.33;;;;;;;2.79;74.52;98834.25;5109837;28;20191;-65
2021/01/03 02:25:16;;;;;;;5.05;2.90;;;;;;;2.90;74.32;98832.03;5108647;28;20336;-66
2021/01/03 02:27:51;;;;;;;3.83;3.25;;;;;;;2.66;75.06;98832.03;5108780;28;20252;-65
2021/01/03 02:30:19;;;;;;;5.70;4.00;;;;;;;2.77;74.54;98830.78;5108261;28;20181;-65
2021/01/03 02:32:49;;;;;;;4.70;2.85;;;;;;;2.79;74.98;98828.94;5107396;28;20671;-65
2021/01/03 02:35:16;;;;;;;5.20;2.70;;;;;;;2.98;74.64;98827.25;5107567;28;20187;-65
2021/01/03 02:37:46;;;;;;;5.85;3.45;;;;;;;3.16;73.54;98827.47;5108504;28;20541;-64
2021/01/03 02:40:20;;;;;;;6.35;4.28;;;;;;;3.14;73.16;98819.53;5108372;28;20614;-64
2021/01/03 02:42:46;;;;;;;6.63;3.45;;;;;;;2.99;74.02;98826.34;5108096;28;20217;-66
2021/01/03 02:45:16;;;;;;;6.57;3.75;;;;;;;2.83;74.27;98819.91;5110254;28;20314;-64
2021/01/03 02:47:42;;;;;;;5.00;3.30;;;;;;;2.69;75.13;98820.41;5108734;28;20562;-65
2021/01/03 02:50:14;;;;;;;5.15;3.65;;;;;;;2.84;74.45;98826.94;5108074;28;20209;-65
2021/01/03 02:52:42;;;;;;;4.60;4.13;;;;;;;2.72;75.13;98823.84;5107401;28;20201;-65
2021/01/03 02:55:10;;;;;;;4.53;3.05;;;;;;;2.71;75.79;98822.13;5108316;28;20187;-64
2021/01/03 02:57:37;;;;;;;4.82;3.25;;;;;;;3.08;74.40;98830.44;5107605;28;20637;-65
2021/01/03 03:00:05;;;;;;;6.03;3.63;;;;;;;2.96;74.43;98826.47;5109980;28;20208;-64
2021/01/03 03:02:31;;;;;;;7.13;3.30;;;;;;;3.00;74.24;98825.41;5107807;28;20202;-64
2021/01/03 03:04:57;;;;;;;4.25;3.28;;;;;;;3.12;74.03;98830.25;5107839;28;20198;-64
2021/01/03 03:07:24;;;;;;;5.47;3.25;;;;;;;2.90;74.09;98829.38;5108075;28;20304;-68
2021/01/03 03:09:50;;;;;;;4.40;3.20;;;;;;;3.21;72.82;98826.38;5106563;28;20187;-65
2021/01/03 03:12:16;;;;;;;5.43;3.45;;;;;;;3.06;72.99;98824.31;5107777;28;20189;-65
2021/01/03 03:14:43;;;;;;;7.15;3.20;;;;;;;3.19;72.94;98822.91;5107108;28;20271;-63
2021/01/03 03:17:09;;;;;;;6.78;3.97;;;;;;;3.05;73.26;98820.81;5107631;28;20215;-65
2021/01/03 03:19:36;;;;;;;6.05;3.88;;;;;;;3.11;73.43;98823.19;5107795;28;20231;-65
2021/01/03 03:22:04;;;;;;;6.78;3.95;;;;;;;3.32;72.58;98813.50;5108059;28;20188;-65
2021/01/03 03:24:30;;;;;;;4.20;2.92;;;;;;;3.19;72.58;98814.03;5107851;28;20272;-64
2021/01/03 03:27:01;;;;;;;5.00;3.60;;;;;;;3.09;73.35;98817.06;5107616;28;20195;-65
2021/01/03 03:29:27;;;;;;;4.68;3.25;;;;;;;3.17;73.00;98807.94;5107092;28;20206;-65
2021/01/03 03:31:55;;;;;;;7.18;4.03;;;;;;;3.10;73.18;98809.97;5107180;28;20274;-65
2021/01/03 03:34:22;;;;;;;5.28;3.17;;;;;;;3.06;72.87;98814.53;5107516;28;20175;-64
2021/01/03 03:36:51;;;;;;;5.97;3.58;;;;;;;2.88;73.63;98812.63;5107795;28;20187;-65
2021/01/03 03:39:17;;;;;;;5.35;3.65;;;;;;;3.04;73.54;98813.72;5108358;28;20193;-64
2021/01/03 03:41:44;;;;;;;6.15;3.10;;;;;;;3.43;71.90;98820.16;5107436;28;20208;-66
2021/01/03 03:44:10;;;;;;;4.88;3.08;;;;;;;3.37;71.62;98809.75;5106470;28;20205;-66
2021/01/03 03:46:36;;;;;;;4.70;3.47;;;;;;;3.21;72.33;98810.41;5106786;28;20205;-64
2021/01/03 03:49:03;;;;;;;8.13;3.03;;;;;;;3.01;73.24;98813.88;5107399;28;20186;-65
2021/01/03 03:51:29;;;;;;;5.43;4.00;;;;;;;2.79;74.46;98811.19;5106624;28;20274;-65
2021/01/03 03:53:55;;;;;;;4.95;4.00;;;;;;;3.03;73.92;98809.34;5106248;28;20208;-66
2021/01/03 03:56:22;;;;;;;6.30;3.42;;;;;;;3.17;73.11;98810.59;5106562;28;20244;-65
2021/01/03 03:58:48;;;;;;;7.80;3.95;;;;;;;3.10;73.38;98807.31;5107010;28;20689;-64
2021/01/03 04:01:14;;;;;;;4.25;2.85;;;;;;;3.29;72.58;98802.09;5108159;28;20205;-65
2021/01/03 04:03:40;;;;;;;6.68;4.00;;;;;;;2.91;73.80;98808.03;5107438;28;20598;-65
2021/01/03 04:06:07;;;;;;;5.55;3.70;;;;;;;2.81;74.80;98811.13;5107039;28;20184;-64
2021/01/03 04:08:36;;;;;;;6.93;3.10;;;;;;;2.76;75.11;98815.72;5106391;28;20531;-66
2021/01/03 04:11:02;;;;;;;5.35;3.55;;;;;;;2.63;76.09;98812.72;5107499;28;20237;-65
2021/01/03 04:13:28;;;;;;;7.38;4.82;;;;;;;2.90;74.74;98808.09;5107237;28;20270;-64
2021/01/03 04:15:54;;;;;;;9.13;3.95;;;;;;;2.81;75.40;98805.81;5107363;28;20274;-65
2021/01/03 04:18:20;;;;;;;6.22;3.53;;;;;;;3.25;74.04;98798.69;5105211;28;20295;-65
2021/01/03 04:20:46;;;;;;;8.45;4.15;;;;;;;3.35;72.79;98801.84;5106678;28;20608;-65
2021/01/03 04:23:13;;;;;;;6.30;3.88;;;;;;;3.01;74.20;98797.91;5106898;28;20195;-64
2021/01/03 04:25:39;;;;;;;5.38;3.15;;;;;;;3.08;74.29;98796.72;5106615;28;20202;-64
2021/01/03 04:28:06;;;;;;;3.97;3.58;;;;;;;2.91;74.64;98792.06;5106663;28;20189;-65
2021/01/03 04:30:32;;;;;;;4.85;3.30;;;;;;;2.76;75.57;98794.47;5106435;28;20275;-65
2021/01/03 04:32:58;;;;;;;4.35;3.20;;;;;;;2.87;75.19;98806.44;5106473;28;20247;-65
2021/01/03 04:35:24;;;;;;;6.90;3.53;;;;;;;3.00;74.99;98803.28;5105555;28;20195;-65
2021/01/03 04:37:52;;;;;;;6.32;3.92;;;;;;;3.01;74.83;98800.56;5105801;28;20184;-65
2021/01/03 04:40:21;;;;;;;6.38;3.42;;;;;;;3.12;74.26;98800.09;5106865;28;20708;-65
2021/01/03 04:42:53;;;;;;;4.28;3.45;;;;;;;3.10;74.33;98794.88;5106035;28;20198;-64
2021/01/03 04:45:26;;;;;;;4.93;3.70;;;;;;;3.30;73.78;98796.72;5106224;28;20765;-65
2021/01/03 04:47:56;;;;;;;5.20;3.40;;;;;;;3.21;73.62;98794.44;5107089;28;20189;-65
2021/01/03 04:50:54;;;;;;;3.85;3.45;;;;;;;3.34;73.17;98792.97;5107031;28;20190;-65
2021/01/03 04:53:53;;;;;;;3.92;3.40;;;;;;;3.37;73.14;98805.31;5104421;28;20580;-63
2021/01/03 04:56:37;;;;;;;10.32;4.47;;;;;;;3.38;73.15;98807.03;5105799;28;20213;-64
2021/01/03 04:59:36;;;;;;;4.07;3.67;;;;;;;3.30;73.65;98801.16;5105400;28;20652;-64
2021/01/03 05:02:36;;;;;;;6.53;3.97;;;;;;;3.33;73.59;98801.06;5106936;28;20271;-65
2021/01/03 05:05:30;;;;;;;9.45;3.60;;;;;;;3.07;74.30;98802.09;5101091;28;20278;-65
2021/01/03 05:08:20;;;;;;;6.35;2.72;;;;;;;3.01;74.75;98803.22;5106081;28;20183;-64
2021/01/03 05:10:49;;;;;;;6.45;3.53;;;;;;;2.98;75.58;98805.13;5105348;28;20189;-64
2021/01/03 05:13:39;;;;;;;4.22;2.95;;;;;;;3.20;74.55;98803.34;5106520;28;20950;-64
2021/01/03 05:16:11;;;;;;;4.50;3.17;;;;;;;3.34;73.78;98806.28;5105276;28;20198;-65
2021/01/03 05:18:37;;;;;;;4.45;3.30;;;;;;;3.10;74.83;98815.28;5105911;28;20292;-65
2021/01/03 05:21:44;;;;;;;7.10;3.80;;;;;;;3.02;74.86;98814.72;5105352;28;20680;-65
2021/01/03 05:24:18;;;;;;;3.83;3.05;;;;;;;2.89;75.77;98815.22;5104748;28;20287;-65
2021/01/03 05:26:53;;;;;;;5.75;2.95;;;;;;;2.84;75.87;98811.84;5107344;28;20185;-65
2021/01/03 05:29:51;;;;;;;3.75;3.00;;;;;;;2.81;76.44;98816.44;5105441;28;20187;-64
2021/01/03 05:32:33;;;;;;;5.78;3.75;;;;;;;2.93;76.02;98814.16;5103269;28;20192;-65
2021/01/03 05:35:23;;;;;;;4.55;3.58;;;;;;;2.77;75.96;98812.16;5106594;28;20275;-64
2021/01/03 05:37:52;;;;;;;3.88;3.42;;;;;;;2.74;76.51;98809.59;5104610;28;20621;-66
2021/01/03 05:40:30;;;;;;;5.78;3.88;;;;;;;2.97;75.53;98812.25;5105462;28;20573;-64
2021/01/03 05:43:25;;;;;;;5.57;4.45;;;;;;;2.80;76.24;98815.56;5107437;28;20695;-64
2021/01/03 05:46:19;;;;;;;5.88;3.72;;;;;;;2.96;75.66;98818.47;5105801;28;20260;-65
2021/01/03 05:48:58;;;;;;;7.75;4.80;;;;;;;2.80;76.61;98812.91;5104587;28;20594;-65
2021/01/03 05:51:39;;;;;;;4.55;3.20;;;;;;;3.03;75.70;98805.81;5106799;28;20189;-65
2021/01/03 05:54:14;;;;;;;5.88;4.07;;;;;;;3.11;75.58;98804.56;5105922;28;20211;-66
2021/01/03 05:56:41;;;;;;;5.80;4.22;;;;;;;3.40;74.00;98804.31;5106410;28;20186;-64
2021/01/03 05:59:20;;;;;;;4.85;3.25;;;;;;;3.45;73.38;98802.31;5105647;28;20201;-64
2021/01/03 06:02:06;;;;;;;4.50;3.60;;;;;;;3.40;73.50;98804.31;5106296;28;20842;-64
2021/01/03 06:04:33;;;;;;;6.43;3.80;;;;;;;3.31;74.33;98809.09;5104358;28;20186;-64
2021/01/03 06:07:13;;;;;;;6.10;3.88;;;;;;;3.23;74.36;98805.00;5105229;28;20519;-65
2021/01/03 06:09:48;;;;;;;7.05;3.17;;;;;;;2.88;75.48;98813.47;5105975;28;20184;-64
2021/01/03 06:12:18;;;;;;;6.03;4.35;;;;;;;2.88;75.82;98810.81;5106024;28;20197;-66
2021/01/03 06:14:46;;;;;;;7.30;4.82;;;;;;;2.88;76.60;98809.97;5104555;28;20218;-65
2021/01/03 06:17:36;;;;;;;5.55;3.35;;;;;;;2.90;75.88;98811.63;5106072;28;20276;-66
2021/01/03 06:20:19;;;;;;;4.63;2.97;;;;;;;3.19;75.38;98811.38;5106728;28;20676;-65
2021/01/03 06:22:52;;;;;;;5.85;3.42;;;;;;;3.26;74.64;98804.91;5109101;28;20196;-65
2021/01/03 06:25:41;;;;;;;5.38;3.33;;;;;;;3.07;75.24;98816.25;5108045;28;20682;-65
2021/01/03 06:28:54;;;;;;;;;;;;;;;;;;;;;
2021/01/03 06:32:10;;;;;;;7.30;3.85;;;;;;;3.20;75.15;98816.63;5108144;28;20199;-63
2021/01/03 06:34:51;;;;;;;6.18;3.25;;;;;;;3.31;74.55;98819.72;5108111;28;20275;-65
2021/01/03 06:37:34;;;;;;;5.68;3.67;;;;;;;3.13;74.75;98817.81;5109291;28;20187;-64
2021/01/03 06:40:10;;;;;;;4.85;3.55;;;;;;;3.03;76.25;98816.44;5109523;28;20213;-64
2021/01/03 06:43:19;;;;;;;5.53;3.33;;;;;;;3.22;75.26;98814.78;5108222;28;20197;-65
2021/01/03 06:46:31;;;;;;;3.60;3.03;;;;;;;3.07;75.52;98805.63;5108651;28;20605;-65
2021/01/03 06:49:33;;;;;;;4.50;3.53;;;;;;;3.07;75.33;98812.75;5107859;28;20198;-65
2021/01/03 06:52:33;;;;;;;5.45;3.33;;;;;;;3.05;75.41;98812.81;5109179;28;20278;-65
2021/01/03 06:55:22;;;;;;;6.75;4.20;;;;;;;2.97;75.69;98806.94;5114570;28;20223;-66
2021/01/03 06:58:43;;;;;;;7.05;3.70;;;;;;;3.18;74.88;98805.19;5114911;28;20193;-65
2021/01/03 07:01:17;;;;;;;4.85;3.28;;;;;;;3.13;74.58;98810.69;5114599;28;20276;-64
2021/01/03 07:03:48;;;;;;;5.03;3.50;;;;;;;2.85;75.89;98807.41;5114342;28;20191;-65
2021/01/03 07:06:15;;;;;;;7.93;4.45;;;;;;;2.99;75.67;98815.72;5114341;28;20181;-64
2021/01/03 07:08:47;;;;;;;4.18;3.60;;;;;;;2.92;75.60;98804.47;5114522;28;20553;-64
2021/01/03 07:11:46;;;;;;;4.88;3.53;;;;;;;2.70;76.62;98816.84;5114820;28;20584;-66
2021/01/03 07:15:00;;;;;;;6.03;3.33;;;;;;;2.89;76.00;98809.00;5114793;28;20205;-65
2021/01/03 07:18:01;;;;;;;8.70;4.45;;;;;;;2.92;75.64;98814.22;5114450;28;20296;-64
2021/01/03 07:20:33;;;;;;;9.27;4.65;;;;;;;3.06;74.49;98811.03;5088855;28;20227;-64
2021/01/03 07:23:35;;;;;;;6.78;4.40;;;;;;;2.70;76.12;98809.75;5113875;28;20260;-63
2021/01/03 07:26:13;;;;;;;5.63;3.25;;;;;;;2.72;76.29;98802.56;5114221;28;20183;-64
2021/01/03 07:28:43;;;;;;;4.95;3.65;;;;;;;2.60;76.90;98812.81;5114232;28;20248;-65
2021/01/03 07:31:35;;;;;;;6.57;3.70;;;;;;;2.64;76.80;98807.31;5114184;28;20179;-64
2021/01/03 07:34:04;;;;;;;11.10;4.47;;;;;;;2.65;76.91;98806.41;5114139;28;20192;-65
2021/01/03 07:36:49;;;;;;;6.53;4.20;;;;;;;2.64;77.04;98812.63;5113920;28;20579;-65
2021/01/03 07:39:29;;;;;;;7.72;4.53;;;;;;;2.74;76.40;98804.28;5113639;28;20189;-65
2021/01/03 07:42:19;;;;;;;4.97;3.75;;;;;;;2.86;75.52;98809.16;5113811;28;20205;-66
2021/01/03 07:44:49;;;;;;;4.90;4.13;;;;;;;2.97;75.00;98803.41;5113755;28;20183;-65
2021/01/03 07:47:42;;;;;;;9.13;4.63;;;;;;;2.94;75.06;98809.72;5113436;28;20190;-64
2021/01/03 07:50:36;;;;;;;6.13;4.22;;;;;;;3.00;74.09;98812.13;5113706;28;20179;-65
2021/01/03 07:53:26;;;;;;;5.00;3.88;;;;;;;2.94;74.63;98801.75;5030382;28;20226;-64
2021/01/03 07:55:53;;;;;;;5.30;3.97;;;;;;;2.87;74.61;98816.19;5030814;28;20229;-64
2021/01/03 07:58:23;;;;;;;10.65;5.90;;;;;;;2.77;75.14;98813.03;5030769;28;20188;-65
2021/01/03 08:01:11;;;;;;;10.93;4.68;;;;;;;3.02;74.89;98812.94;5030613;28;20565;-64
2021/01/03 08:03:38;;;;;;;9.02;4.68;;;;;;;3.09;73.81;98811.75;5030586;28;20199;-64
2021/01/03 08:06:19;;;;;;;4.53;3.92;;;;;;;3.26;72.95;98807.56;5030623;28;20308;-64
2021/01/03 08:08:53;;;;;;;7.80;4.80;;;;;;;3.09;73.02;98813.53;5030530;28;20283;-65
2021/01/03 08:11:26;;;;;;;8.20;4.10;;;;;;;3.07;73.32;98799.44;5030392;28;20184;-63
2021/01/03 08:14:01;;;;;;;5.55;4.43;;;;;;;3.19;73.07;98806.94;5030746;28;20188;-64
2021/01/03 08:16:32;;;;;;;8.93;4.80;;;;;;;3.32;72.24;98808.16;5030311;28;20201;-64
2021/01/03 08:19:07;;;;;;;7.75;5.55;;;;;;;3.26;72.48;98811.06;5030138;28;20207;-63
2021/01/03 08:21:39;;;;;;;6.97;4.35;;;;;;;3.18;72.73;98809.66;5030303;28;20229;-65
2021/01/03 08:24:15;;;;;;;7.15;4.65;;;;;;;3.22;72.65;98811.25;5030422;28;20186;-64
2021/01/03 08:26:43;;;;;;;8.40;4.55;;;;;;;3.24;72.38;98818.25;5030155;28;20555;-64
2021/01/03 08:29:21;;;;;;;7.03;4.93;;;;;;;3.07;73.24;98810.94;5087410;28;20203;-66
2021/01/03 08:31:50;;;;;;;9.30;6.55;;;;;;;3.06;73.06;98825.19;5112674;28;20182;-65
2021/01/03 08:34:28;;;;;;;8.52;4.68;;;;;;;3.17;72.82;98815.91;5112586;28;20202;-64
2021/01/03 08:36:58;;;;;;;7.82;5.53;;;;;;;3.17;72.96;98818.56;5112688;28;20193;-64
2021/01/03 08:39:26;;;;;;;8.15;6.05;;;;;;;3.17;72.72;98824.75;5112345;28;20322;-64
2021/01/03 08:41:57;;;;;;;11.70;5.55;;;;;;;3.30;72.14;98827.75;5112570;28;20205;-64
2021/01/03 08:44:36;;;;;;;9.27;5.72;;;;;;;3.40;71.89;98821.16;5113031;28;20194;-65
2021/01/03 08:47:04;;;;;;;9.02;5.03;;;;;;;3.46;71.21;98820.91;5112804;28;20179;-64
2021/01/03 08:49:39;;;;;;;10.98;5.60;;;;;;;3.31;71.95;98826.84;5112911;28;20276;-64
2021/01/03 08:52:17;;;;;;;11.45;5.78;;;;;;;3.20;72.58;98827.28;5112147;28;20671;-64
2021/01/03 08:54:47;;;;;;;10.35;6.20;;;;;;;3.21;72.33;98826.38;5112624;28;20632;-64
2021/01/03 08:57:17;;;;;;;9.45;5.80;;;;;;;3.22;72.56;98827.22;5112244;28;20188;-66
2021/01/03 08:59:44;;;;;;;8.40;4.90;;;;;;;3.18;72.08;98831.78;5112891;28;21004;-65
2021/01/03 09:02:20;;;;;;;9.75;5.97;;;;;;;3.11;73.15;98832.97;5112268;28;20315;-64
2021/01/03 09:04:55;;;;;;;7.25;5.18;;;;;;;3.46;71.62;98830.66;5112483;28;20270;-64
2021/01/03 09:07:25;;;;;;;8.32;5.93;;;;;;;3.41;71.98;98837.97;5111882;28;20188;-64
2021/01/03 09:09:53;;;;;;;9.95;5.60;;;;;;;3.58;71.13;98829.31;5112630;28;20272;-65
2021/01/03 09:12:38;;;;;;;6.90;4.75;;;;;;;3.63;70.86;98832.63;5112659;28;20203;-65
2021/01/03 09:15:26;;;;;;;10.40;5.45;;;;;;;3.68;70.73;98828.84;5112290;28;20193;-64
2021/01/03 09:18:11;;;;;;;8.48;5.45;;;;;;;3.74;71.01;98841.03;5111932;28;20224;-66
2021/01/03 09:20:43;;;;;;;9.85;5.05;;;;;;;3.70;71.84;98842.09;5111739;28;20302;-65
2021/01/03 09:23:25;;;;;;;10.52;5.90;;;;;;;3.78;73.25;98845.31;5112760;28;20211;-66
2021/01/03 09:26:12;;;;;;;9.75;5.50;;;;;;;4.10;70.17;98835.06;5112491;28;20187;-65
2021/01/03 09:28:40;;;;;;;8.73;6.50;;;;;;;3.90;70.42;98851.91;5100124;28;20305;-65
2021/01/03 09:31:14;;;;;;;7.45;4.93;;;;;;;3.88;70.46;98846.63;5111739;28;20268;-66
2021/01/03 09:34:03;;;;;;;10.77;5.00;;;;;;;3.87;71.58;98852.03;5112050;28;20193;-64
2021/01/03 09:36:47;;;;;;;8.73;5.22;;;;;;;3.88;70.79;98843.97;5112156;28;20587;-65
2021/01/03 09:39:32;;;;;;;7.82;5.32;;;;;;;3.91;70.40;98858.94;5112036;28;20276;-65
2021/01/03 09:42:32;;;;;;;7.50;5.82;;;;;;;4.02;69.95;98853.16;5111863;28;20286;-64
2021/01/03 09:45:13;;;;;;;6.70;5.07;;;;;;;3.96;70.33;98852.50;5104865;28;20199;-65
2021/01/03 09:47:42;;;;;;;12.68;6.20;;;;;;;3.93;70.43;98860.63;5112417;28;20998;-65
2021/01/03 09:50:17;;;;;;;11.27;6.00;;;;;;;4.06;70.51;98866.28;5111641;28;20189;-64
2021/01/03 09:52:50;;;;;;;9.50;5.40;;;;;;;3.99;70.66;98869.28;5114320;28;20208;-65
2021/01/03 09:55:22;;;;;;;9.32;6.10;;;;;;;3.66;71.88;98867.09;5116169;28;20186;-65
2021/01/03 09:57:58;;;;;;;6.97;5.50;;;;;;;3.88;71.88;98873.25;5116377;28;20185;-65
2021/01/03 10:00:45;;;;;;;7.05;5.63;;;;;;;3.86;71.03;98860.94;5115910;28;20209;-65
2021/01/03 10:03:16;;;;;;;7.88;4.97;;;;;;;4.00;71.04;98874.53;5115466;28;20626;-64
2021/01/03 10:05:43;;;;;;;9.40;5.68;;;;;;;4.02;70.98;98871.81;5115504;28;20185;-66
2021/01/03 10:08:18;;;;;;;8.38;5.55;;;;;;;4.02;71.19;98866.47;5115684;28;20601;-65
2021/01/03 10:10:50;;;;;;;6.15;4.97;;;;;;;3.83;71.90;98871.75;5115922;28;20268;-64
2021/01/03 10:13:21;;;;;;;9.10;6.00;;;;;;;3.79;72.15;98867.47;5115687;28;20205;-65
2021/01/03 10:15:49;;;;;;;9.18;5.85;;;;;;;3.82;72.09;98862.88;5115356;28;20195;-64
2021/01/03 10:18:33;;;;;;;10.23;5.65;;;;;;;3.72;72.49;98858.88;5114900;28;20214;-65
2021/01/03 10:20:59;;;;;;;7.68;4.50;;;;;;;4.01;71.99;98867.44;5097704;28;20249;-66
2021/01/03 10:23:35;;;;;;;7.50;4.85;;;;;;;4.13;70.96;98859.75;5106250;28;20276;-65
2021/01/03 10:26:03;;;;;;;7.30;5.28;;;;;;;3.97;71.85;98870.19;5095111;28;20521;-65
2021/01/03 10:28:33;;;;;;;7.00;5.30;;;;;;;4.08;71.28;98858.22;5094496;28;20212;-65
2021/01/03 10:30:59;;;;;;;7.45;5.80;;;;;;;3.94;71.52;98865.00;5095285;28;20288;-66
2021/01/03 10:33:25;;;;;;;10.95;5.82;;;;;;;4.08;72.60;98871.56;5094975;28;20567;-65
2021/01/03 10:35:52;;;;;;;6.82;5.13;;;;;;;4.07;72.24;98870.69;5094925;28;20187;-66
2021/01/03 10:38:18;;;;;;;7.43;5.00;;;;;;;3.97;72.20;98859.53;5094429;28;20197;-65
2021/01/03 10:40:45;;;;;;;7.15;5.22;;;;;;;4.00;72.55;98863.88;5094817;28;20246;-66
2021/01/03 10:43:11;;;;;;;10.48;4.85;;;;;;;4.04;72.86;98860.16;5094147;28;20201;-66
2021/01/03 10:45:39;;;;;;;8.95;4.55;;;;;;;4.14;72.75;98858.84;5113587;28;20204;-64
2021/01/03 10:48:06;;;;;;;10.00;5.22;;;;;;;4.43;71.97;98863.78;5114525;28;20276;-65
2021/01/03 10:50:33;;;;;;;7.10;4.60;;;;;;;4.39;72.11;98857.75;5114677;28;20274;-65
2021/01/03 10:52:59;;;;;;;8.27;5.05;;;;;;;4.34;72.23;98852.63;5115139;28;20238;-65
2021/01/03 10:55:25;;;;;;;9.63;5.20;;;;;;;4.04;73.49;98865.47;5115005;28;20643;-65
2021/01/03 10:57:56;;;;;;;7.35;4.85;;;;;;;4.19;73.33;98855.97;5114926;28;20194;-65
2021/01/03 11:00:27;;;;;;;7.00;5.07;;;;;;;3.99;74.03;98858.63;5114658;28;20621;-65
2021/01/03 11:02:56;;;;;;;8.82;4.82;;;;;;;3.83;73.87;98858.41;5114559;28;20207;-64
2021/01/03 11:05:22;;;;;;;9.32;5.95;;;;;;;3.62;76.20;98847.75;5115028;28;20192;-64
2021/01/03 11:07:48;;;;;;;8.20;5.63;;;;;;;4.07;74.81;98845.81;5114500;28;20982;-65
2021/01/03 11:10:15;;;;;;;15.88;5.63;;;;;;;4.27;73.92;98840.47;5114593;28;20311;-65
2021/01/03 11:12:41;;;;;;;7.70;5.65;;;;;;;4.39;73.52;98841.75;5114270;28;20278;-66
2021/01/03 11:15:12;;;;;;;9.13;5.38;;;;;;;4.13;74.54;98845.56;5113787;28;20536;-65
2021/01/03 11:17:38;;;;;;;7.10;5.10;;;;;;;3.93;75.15;98841.09;5114093;27;20190;-65
2021/01/03 11:20:06;;;;;;;8.23;4.82;;;;;;;3.88;76.45;98837.78;5113834;28;20579;-66
2021/01/03 11:25:58;;;;;;;10.32;5.43;;;;;;;4.10;76.23;98838.56;5108337;28;20294;-66
2021/01/03 11:28:36;;;;;;;9.48;4.78;;;;;;;3.86;76.79;98840.50;5113072;28;20506;-64
2021/01/03 11:31:03;;;;;;;7.90;5.03;;;;;;;3.94;76.99;98841.03;5113615;28;20204;-65
2021/01/03 11:33:29;;;;;;;9.85;5.78;;;;;;;4.09;76.02;98830.66;5114157;28;20200;-65
2021/01/03 11:35:57;;;;;;;8.75;4.57;;;;;;;4.05;76.00;98840.59;5113951;28;20292;-66
2021/01/03 11:38:23;;;;;;;10.32;5.75;;;;;;;3.79;77.45;98838.19;5113537;28;20206;-65
2021/01/03 11:40:55;;;;;;;8.38;5.70;;;;;;;3.88;76.91;98832.44;5113589;28;20257;-65
2021/01/03 11:43:22;;;;;;;9.30;5.25;;;;;;;3.99;77.13;98829.34;5113753;28;20192;-64
2021/01/03 11:46:03;;;;;;;9.65;5.43;;;;;;;4.22;76.17;98825.66;5112753;28;20190;-65
2021/01/03 11:48:36;;;;;;;7.55;5.82;;;;;;;4.16;76.19;98832.09;5110867;28;20203;-66
2021/01/03 11:54:16;;;;;;;6.18;5.15;;;;;;;4.22;75.73;98820.31;5107915;28;20201;-67
2021/01/03 11:56:42;;;;;;;7.35;5.68;;;;;;;4.08;76.76;98818.28;5113027;28;20658;-67
2021/01/03 11:59:28;;;;;;;7.10;5.15;;;;;;;4.33;76.32;98812.72;5112974;28;20284;-69
2021/01/03 12:02:26;;;;;;;8.90;5.10;;;;;;;4.30;76.42;98813.72;5113217;28;20253;-67
2021/01/03 12:04:53;;;;;;;7.20;4.75;;;;;;;4.38;76.71;98822.22;5113147;28;20186;-67
2021/01/03 12:07:21;;;;;;;8.85;5.68;;;;;;;4.48;76.89;98821.81;5113748;28;20552;-66
2021/01/03 12:09:48;;;;;;;6.45;4.53;;;;;;;4.33;77.89;98823.38;5113094;28;20557;-67
2021/01/03 12:12:20;;;;;;;6.55;5.03;;;;;;;4.46;77.16;98815.69;5112789;28;20186;-67
2021/01/03 12:14:51;;;;;;;6.32;4.60;;;;;;;4.44;77.49;98821.09;5111881;28;20212;-67
2021/01/03 12:17:22;;;;;;;9.75;5.25;;;;;;;4.60;77.09;98810.56;5112705;28;20226;-68
2021/01/03 12:19:55;;;;;;;10.60;5.65;;;;;;;4.63;77.50;98814.91;5112960;28;20228;-69